createdAt,value
2022-09-03T00:00:08.039Z,29.68
2022-09-03T00:01:14.005Z,29.56
2022-09-03T00:02:25.523Z,29.73
2022-09-03T00:03:40.975Z,29.36
2022-09-03T00:05:08.472Z,29.39
2022-09-03T00:06:14.247Z,29.32
2022-09-03T00:09:22.375Z,29.15
2022-09-03T00:10:33.017Z,29.37
2022-09-03T00:11:42.566Z,29.36
2022-09-03T00:12:45.501Z,29.31
2022-09-03T00:14:00.656Z,29.07
2022-09-03T00:16:22.059Z,29.28
2022-09-03T00:17:27.954Z,30.00
2022-09-03T00:18:31.937Z,30.35
2022-09-03T00:19:37.503Z,30.65
2022-09-03T00:20:53.209Z,30.79
2022-09-03T00:22:04.951Z,30.84
2022-09-03T00:23:10.567Z,30.95
2022-09-03T00:24:15.669Z,31.07
2022-09-03T00:25:24.987Z,31.12
2022-09-03T00:26:29.794Z,31.13
2022-09-03T00:27:35.201Z,31.20
2022-09-03T00:29:10.510Z,31.20
2022-09-03T00:30:17.228Z,31.20
2022-09-03T00:31:28.836Z,31.24
2022-09-03T00:32:40.766Z,31.31
2022-09-03T00:33:43.861Z,31.36
2022-09-03T00:34:51.324Z,31.43
2022-09-03T00:36:12.198Z,31.46
2022-09-03T00:37:15.696Z,31.55
2022-09-03T00:38:18.109Z,31.60
2022-09-03T00:39:22.157Z,31.62
2022-09-03T00:40:45.179Z,31.68
2022-09-03T00:42:24.619Z,31.71
2022-09-03T00:43:36.642Z,31.72
2022-09-03T00:46:12.343Z,31.82
2022-09-03T00:47:42.735Z,31.86
2022-09-03T00:48:57.793Z,31.91
2022-09-03T00:50:09.741Z,31.95
2022-09-03T00:51:24.301Z,32.00
2022-09-03T00:53:05.633Z,32.06
2022-09-03T00:54:20.406Z,32.11
2022-09-03T00:55:47.074Z,32.13
2022-09-03T00:58:32.526Z,32.24
2022-09-03T00:59:39.726Z,32.28
2022-09-03T01:00:42.334Z,32.32
2022-09-03T01:01:51.292Z,32.37
2022-09-03T01:03:13.880Z,32.40
2022-09-03T01:04:35.101Z,32.42
2022-09-03T01:05:43.778Z,32.44
2022-09-03T01:06:56.461Z,32.45
2022-09-03T01:08:23.794Z,32.52
2022-09-03T01:09:44.908Z,32.53
2022-09-03T01:11:15.671Z,32.54
2022-09-03T01:14:25.574Z,32.60
2022-09-03T01:15:30.816Z,32.65
2022-09-03T01:16:52.644Z,32.66
2022-09-03T01:18:25.781Z,32.72
2022-09-03T01:19:48.647Z,32.74
2022-09-03T01:20:57.204Z,32.78
2022-09-03T01:22:06.338Z,32.81
2022-09-03T01:23:12.448Z,32.84
2022-09-03T01:24:33.557Z,32.93
2022-09-03T01:27:26.757Z,33.09
2022-09-03T01:28:49.688Z,33.15
2022-09-03T01:31:32.456Z,33.20
2022-09-03T01:32:44.418Z,33.23
2022-09-03T01:33:53.994Z,33.25
2022-09-03T01:35:21.401Z,33.32
2022-09-03T01:36:50.729Z,33.31
2022-09-03T01:38:13.140Z,33.28
2022-09-03T01:39:52.760Z,33.26
2022-09-03T01:41:05.236Z,33.28
2022-09-03T01:42:11.335Z,33.28
2022-09-03T01:43:34.090Z,33.31
2022-09-03T01:44:57.568Z,33.35
2022-09-03T01:47:27.643Z,33.43
2022-09-03T01:48:42.814Z,33.48
2022-09-03T01:49:52.686Z,33.47
2022-09-03T01:52:43.195Z,33.52
2022-09-03T01:54:01.258Z,33.51
2022-09-03T01:57:34.754Z,33.54
2022-09-03T01:58:39.277Z,33.55
2022-09-03T01:59:58.990Z,33.57
2022-09-03T02:01:04.721Z,33.58
2022-09-03T02:02:22.059Z,33.58
2022-09-03T02:03:24.655Z,33.83
2022-09-03T02:04:26.999Z,33.98
2022-09-03T02:05:29.160Z,34.00
2022-09-03T02:06:32.006Z,34.04
2022-09-03T02:07:36.334Z,33.99
2022-09-03T02:08:38.628Z,34.00
2022-09-03T02:09:40.891Z,33.99
2022-09-03T02:10:51.599Z,33.99
2022-09-03T02:12:12.778Z,34.04
2022-09-03T02:13:23.470Z,34.05
2022-09-03T02:14:26.473Z,34.07
2022-09-03T02:15:28.701Z,34.10
2022-09-03T02:16:32.555Z,34.08
2022-09-03T02:17:34.829Z,34.07
2022-09-03T02:18:43.379Z,34.09
2022-09-03T02:19:45.662Z,34.12
2022-09-03T02:20:48.009Z,34.09
2022-09-03T02:21:52.154Z,34.11
2022-09-03T02:22:54.598Z,34.11
2022-09-03T02:23:56.728Z,34.08
2022-09-03T02:25:00.198Z,34.07
2022-09-03T02:26:02.870Z,34.06
2022-09-03T02:27:05.136Z,34.06
2022-09-03T02:28:11.209Z,34.05
2022-09-03T02:29:12.028Z,34.05
2022-09-03T02:30:15.801Z,34.04
2022-09-03T02:31:17.977Z,34.04
2022-09-03T02:32:20.695Z,34.04
2022-09-03T02:33:23.040Z,34.04
2022-09-03T02:34:26.466Z,34.08
2022-09-03T02:35:29.038Z,34.09
2022-09-03T02:36:33.548Z,34.09
2022-09-03T02:37:35.831Z,34.08
2022-09-03T02:38:38.683Z,34.04
2022-09-03T02:39:41.054Z,34.07
2022-09-03T02:40:43.730Z,34.03
2022-09-03T02:41:52.768Z,34.04
2022-09-03T02:42:55.568Z,34.06
2022-09-03T02:45:31.753Z,34.08
2022-09-03T02:46:43.377Z,34.09
2022-09-03T02:47:45.750Z,34.07
2022-09-03T02:48:49.128Z,34.07
2022-09-03T02:49:51.392Z,34.06
2022-09-03T02:50:53.864Z,34.04
2022-09-03T02:52:00.547Z,34.08
2022-09-03T02:53:02.843Z,34.08
2022-09-03T02:54:05.616Z,34.08
2022-09-03T02:55:08.712Z,34.09
2022-09-03T02:56:11.744Z,34.08
2022-09-03T02:57:14.875Z,34.06
2022-09-03T02:58:17.318Z,34.08
2022-09-03T02:59:19.482Z,34.08
2022-09-03T03:00:23.914Z,34.08
2022-09-03T03:01:26.442Z,34.09
2022-09-03T03:02:29.020Z,34.13
2022-09-03T03:03:31.896Z,34.14
2022-09-03T03:04:34.037Z,34.17
2022-09-03T03:05:48.263Z,34.16
2022-09-03T03:06:50.566Z,34.14
2022-09-03T03:07:53.778Z,34.14
2022-09-03T03:08:56.111Z,34.16
2022-09-03T03:09:58.806Z,34.13
2022-09-03T03:11:01.134Z,34.12
2022-09-03T03:12:03.756Z,34.16
2022-09-03T03:13:05.992Z,34.28
2022-09-03T03:14:08.268Z,34.28
2022-09-03T03:15:10.547Z,34.28
2022-09-03T03:16:15.419Z,34.29
2022-09-03T03:17:18.169Z,34.28
2022-09-03T03:18:20.504Z,34.28
2022-09-03T03:19:22.780Z,34.29
2022-09-03T03:20:25.262Z,34.28
2022-09-03T03:21:27.814Z,34.24
2022-09-03T03:22:30.902Z,34.29
2022-09-03T03:23:33.878Z,34.33
2022-09-03T03:24:36.701Z,34.37
2022-09-03T03:25:39.370Z,34.39
2022-09-03T03:26:42.650Z,34.39
2022-09-03T03:27:44.926Z,34.35
2022-09-03T03:28:49.177Z,34.29
2022-09-03T03:29:51.561Z,34.29
2022-09-03T03:30:54.106Z,34.29
2022-09-03T03:31:56.358Z,34.38
2022-09-03T03:32:58.534Z,34.40
2022-09-03T03:34:01.803Z,34.36
2022-09-03T03:35:05.004Z,34.38
2022-09-03T03:36:10.097Z,34.34
2022-09-03T03:37:12.512Z,34.36
2022-09-03T03:38:15.991Z,34.38
2022-09-03T03:39:20.226Z,34.40
2022-09-03T03:40:22.695Z,34.60
2022-09-03T03:42:39.089Z,34.71
2022-09-03T03:43:41.960Z,34.73
2022-09-03T03:44:44.319Z,34.70
2022-09-03T03:45:58.030Z,34.91
2022-09-03T03:47:00.627Z,35.03
2022-09-03T03:48:03.316Z,35.19
2022-09-03T03:49:06.158Z,35.38
2022-09-03T03:50:09.360Z,35.38
2022-09-03T03:51:11.704Z,35.63
2022-09-03T03:52:13.858Z,35.53
2022-09-03T03:53:16.093Z,35.54
2022-09-03T03:54:18.388Z,35.47
2022-09-03T03:55:20.559Z,35.56
2022-09-03T03:56:24.779Z,35.58
2022-09-03T03:57:29.410Z,35.59
2022-09-03T03:58:32.235Z,35.60
2022-09-03T03:59:35.343Z,35.47
2022-09-03T04:00:38.090Z,35.47
2022-09-03T04:01:41.237Z,35.46
2022-09-03T04:02:44.158Z,35.41
2022-09-03T04:03:46.816Z,35.37
2022-09-03T04:04:49.245Z,35.35
2022-09-03T04:05:58.497Z,35.36
2022-09-03T04:07:01.372Z,35.33
2022-09-03T04:08:04.115Z,35.26
2022-09-03T04:09:06.450Z,35.26
2022-09-03T04:10:10.216Z,35.25
2022-09-03T04:11:16.479Z,35.21
2022-09-03T04:12:20.060Z,35.21
2022-09-03T04:13:22.678Z,35.21
2022-09-03T04:14:25.832Z,35.16
2022-09-03T04:15:29.144Z,35.16
2022-09-03T04:16:32.451Z,35.20
2022-09-03T04:17:34.720Z,35.20
2022-09-03T04:18:37.798Z,35.25
2022-09-03T04:19:40.265Z,35.20
2022-09-03T04:20:43.204Z,35.22
2022-09-03T04:21:45.747Z,35.17
2022-09-03T04:22:51.916Z,35.16
2022-09-03T04:23:54.802Z,35.19
2022-09-03T04:24:57.224Z,35.14
2022-09-03T04:25:59.991Z,35.11
2022-09-03T04:27:02.185Z,35.14
2022-09-03T04:28:04.343Z,35.14
2022-09-03T04:29:07.648Z,35.11
2022-09-03T04:30:11.592Z,35.09
2022-09-03T04:31:15.895Z,35.10
2022-09-03T04:32:18.553Z,35.11
2022-09-03T04:33:20.904Z,35.06
2022-09-03T04:34:23.201Z,35.06
2022-09-03T04:35:26.983Z,35.03
2022-09-03T04:36:30.709Z,35.01
2022-09-03T04:37:32.857Z,35.00
2022-09-03T04:38:36.717Z,34.96
2022-09-03T04:39:39.100Z,34.98
2022-09-03T04:40:41.759Z,34.97
2022-09-03T04:41:44.038Z,35.09
2022-09-03T04:42:46.295Z,35.15
2022-09-03T04:43:51.607Z,35.32
2022-09-03T04:44:54.172Z,35.27
2022-09-03T04:46:00.691Z,35.46
2022-09-03T04:47:04.290Z,35.45
2022-09-03T04:48:07.732Z,35.68
2022-09-03T04:49:11.112Z,35.16
2022-09-03T04:50:14.353Z,34.61
2022-09-03T04:51:18.941Z,34.97
2022-09-03T04:52:21.311Z,35.12
2022-09-03T04:53:23.664Z,35.26
2022-09-03T04:54:29.255Z,34.76
2022-09-03T04:57:05.993Z,35.25
2022-09-03T04:58:08.620Z,34.90
2022-09-03T04:59:11.360Z,34.93
2022-09-03T05:00:14.234Z,34.64
2022-09-03T05:01:18.335Z,34.75
2022-09-03T05:02:20.835Z,34.74
2022-09-03T05:03:23.065Z,34.68
2022-09-03T05:04:25.336Z,34.69
2022-09-03T05:05:27.534Z,34.62
2022-09-03T05:06:30.203Z,34.56
2022-09-03T05:07:33.301Z,34.34
2022-09-03T05:08:36.381Z,34.03
2022-09-03T05:09:39.161Z,34.02
2022-09-03T05:10:42.115Z,33.87
2022-09-03T05:11:44.271Z,33.94
2022-09-03T05:12:47.050Z,33.98
2022-09-03T05:13:52.303Z,33.88
2022-09-03T05:14:54.607Z,33.95
2022-09-03T05:16:00.997Z,33.63
2022-09-03T05:17:03.592Z,33.62
2022-09-03T05:18:07.002Z,33.69
2022-09-03T05:19:09.835Z,33.74
2022-09-03T05:20:15.285Z,33.79
2022-09-03T05:21:18.149Z,33.43
2022-09-03T05:22:22.181Z,33.30
2022-09-03T05:23:26.439Z,33.51
2022-09-03T05:24:29.326Z,33.57
2022-09-03T05:25:33.673Z,33.60
2022-09-03T05:26:38.361Z,33.52
2022-09-03T05:27:41.126Z,33.56
2022-09-03T05:28:44.567Z,33.51
2022-09-03T05:29:46.769Z,33.40
2022-09-03T05:31:00.386Z,33.34
2022-09-03T05:32:03.351Z,33.09
2022-09-03T05:33:05.933Z,33.06
2022-09-03T05:34:16.368Z,33.01
2022-09-03T05:35:16.078Z,33.15
2022-09-03T05:36:23.109Z,33.08
2022-09-03T05:37:25.414Z,33.10
2022-09-03T05:38:27.706Z,33.11
2022-09-03T05:39:29.901Z,33.05
2022-09-03T05:40:33.476Z,33.08
2022-09-03T05:41:35.678Z,32.96
2022-09-03T05:42:39.181Z,32.94
2022-09-03T05:43:42.048Z,32.95
2022-09-03T05:44:44.288Z,32.99
2022-09-03T05:45:46.603Z,32.83
2022-09-03T05:46:49.678Z,32.25
2022-09-03T05:47:52.144Z,32.56
2022-09-03T05:48:54.403Z,32.58
2022-09-03T05:49:56.553Z,32.52
2022-09-03T05:51:00.004Z,32.33
2022-09-03T05:52:02.614Z,32.29
2022-09-03T05:53:05.427Z,32.52
2022-09-03T05:54:08.395Z,32.69
2022-09-03T05:55:13.409Z,32.68
2022-09-03T05:56:19.814Z,32.62
2022-09-03T05:57:22.119Z,32.69
2022-09-03T05:58:24.372Z,32.75
2022-09-03T05:59:26.632Z,32.78
2022-09-03T06:00:30.531Z,32.79
2022-09-03T06:01:35.717Z,32.70
2022-09-03T06:02:38.892Z,32.69
2022-09-03T06:03:42.265Z,32.69
2022-09-03T06:04:45.939Z,32.73
2022-09-03T06:05:58.244Z,32.92
2022-09-03T06:07:03.642Z,32.92
2022-09-03T06:08:05.927Z,32.77
2022-09-03T06:09:14.703Z,32.74
2022-09-03T06:10:22.334Z,32.74
2022-09-03T06:11:22.530Z,32.72
2022-09-03T06:12:24.786Z,32.73
2022-09-03T06:13:27.059Z,32.73
2022-09-03T06:14:29.248Z,32.63
2022-09-03T06:15:32.398Z,32.67
2022-09-03T06:16:36.777Z,32.69
2022-09-03T06:17:39.165Z,32.69
2022-09-03T06:18:42.242Z,32.66
2022-09-03T06:19:44.400Z,32.66
2022-09-03T06:20:59.180Z,32.65
2022-09-03T06:22:02.019Z,32.65
2022-09-03T06:23:04.274Z,32.60
2022-09-03T06:24:06.794Z,32.45
2022-09-03T06:25:09.263Z,32.24
2022-09-03T06:26:13.398Z,31.97
2022-09-03T06:27:15.698Z,31.97
2022-09-03T06:28:18.396Z,32.14
2022-09-03T06:29:22.660Z,31.99
2022-09-03T06:30:25.283Z,31.85
2022-09-03T06:31:29.826Z,31.55
2022-09-03T06:32:32.180Z,31.86
2022-09-03T06:33:35.839Z,31.83
2022-09-03T06:34:39.033Z,31.90
2022-09-03T06:35:43.351Z,31.88
2022-09-03T06:36:46.727Z,31.87
2022-09-03T06:37:49.831Z,31.87
2022-09-03T06:38:53.708Z,31.84
2022-09-03T06:39:56.107Z,31.82
2022-09-03T06:40:59.635Z,31.75
2022-09-03T06:42:02.238Z,31.67
2022-09-03T06:43:07.422Z,31.69
2022-09-03T06:44:10.139Z,31.64
2022-09-03T06:45:12.470Z,31.57
2022-09-03T06:46:17.587Z,31.47
2022-09-03T06:47:21.931Z,31.49
2022-09-03T06:48:24.720Z,31.12
2022-09-03T06:49:27.749Z,30.59
2022-09-03T06:50:34.612Z,30.57
2022-09-03T06:51:37.628Z,30.70
2022-09-03T06:52:40.081Z,30.70
2022-09-03T06:53:44.119Z,30.45
2022-09-03T06:54:46.774Z,30.30
2022-09-03T06:57:05.669Z,30.80
2022-09-03T06:58:10.118Z,30.56
2022-09-03T06:59:13.756Z,30.45
2022-09-03T07:00:18.208Z,30.37
2022-09-03T07:01:23.026Z,30.13
2022-09-03T07:02:26.231Z,30.23
2022-09-03T07:03:29.425Z,30.47
2022-09-03T07:04:31.963Z,30.63
2022-09-03T07:05:34.094Z,30.68
2022-09-03T07:06:38.416Z,30.34
2022-09-03T07:07:40.594Z,30.53
2022-09-03T07:08:42.982Z,30.37
2022-09-03T07:09:48.373Z,30.39
2022-09-03T07:10:50.975Z,30.47
2022-09-03T07:11:53.353Z,30.30
2022-09-03T07:12:55.717Z,30.62
2022-09-03T07:13:58.378Z,30.73
2022-09-03T07:15:00.610Z,30.73
2022-09-03T07:16:04.890Z,30.70
2022-09-03T07:17:07.601Z,30.74
2022-09-03T07:18:10.243Z,30.74
2022-09-03T07:19:12.594Z,30.79
2022-09-03T07:20:16.585Z,30.81
2022-09-03T07:22:36.681Z,30.73
2022-09-03T07:23:39.171Z,30.82
2022-09-03T07:24:45.955Z,30.88
2022-09-03T07:25:56.055Z,30.91
2022-09-03T07:26:58.740Z,30.88
2022-09-03T07:28:02.975Z,30.92
2022-09-03T07:29:06.060Z,30.96
2022-09-03T07:30:10.702Z,31.01
2022-09-03T07:31:23.406Z,31.02
2022-09-03T07:32:25.646Z,31.09
2022-09-03T07:33:31.742Z,31.07
2022-09-03T07:34:33.361Z,31.09
2022-09-03T07:35:36.470Z,31.08
2022-09-03T07:36:44.795Z,31.09
2022-09-03T07:37:48.994Z,31.09
2022-09-03T07:38:51.197Z,31.09
2022-09-03T07:39:54.244Z,31.11
2022-09-03T07:40:57.806Z,31.11
2022-09-03T07:41:59.999Z,31.07
2022-09-03T07:43:02.225Z,31.08
2022-09-03T07:44:04.479Z,31.09
2022-09-03T07:45:08.816Z,31.11
2022-09-03T07:47:27.116Z,31.19
2022-09-03T07:48:29.453Z,31.18
2022-09-03T07:49:32.806Z,31.07
2022-09-03T07:50:36.503Z,31.07
2022-09-03T07:51:39.036Z,31.05
2022-09-03T07:52:42.350Z,31.44
2022-09-03T07:53:46.262Z,31.44
2022-09-03T07:54:49.430Z,31.26
2022-09-03T07:55:51.796Z,31.30
2022-09-03T07:56:54.132Z,31.33
2022-09-03T07:57:57.429Z,31.36
2022-09-03T07:58:59.715Z,31.33
2022-09-03T08:00:02.947Z,31.34
2022-09-03T08:02:29.704Z,31.35
2022-09-03T08:03:31.958Z,31.37
2022-09-03T08:04:34.286Z,31.29
2022-09-03T08:05:37.901Z,31.21
2022-09-03T08:06:40.374Z,31.41
2022-09-03T08:07:43.715Z,31.42
2022-09-03T08:08:45.864Z,31.43
2022-09-03T08:09:48.985Z,31.41
2022-09-03T08:10:51.381Z,31.50
2022-09-03T08:11:54.497Z,31.48
2022-09-03T08:12:58.260Z,31.52
2022-09-03T08:14:02.594Z,31.54
2022-09-03T08:15:06.160Z,31.58
2022-09-03T08:16:08.944Z,31.55
2022-09-03T08:17:11.330Z,31.59
2022-09-03T08:18:13.472Z,31.43
2022-09-03T08:19:18.311Z,31.22
2022-09-03T08:20:22.327Z,31.21
2022-09-03T08:21:25.049Z,31.40
2022-09-03T08:22:27.186Z,31.46
2022-09-03T08:23:30.577Z,31.27
2022-09-03T08:24:32.870Z,31.39
2022-09-03T08:26:56.271Z,30.85
2022-09-03T08:28:00.981Z,31.25
2022-09-03T08:29:04.548Z,31.23
2022-09-03T08:30:08.315Z,30.97
2022-09-03T08:31:17.551Z,31.38
2022-09-03T08:32:19.868Z,31.39
2022-09-03T08:33:24.465Z,31.09
2022-09-03T08:34:27.968Z,31.11
2022-09-03T08:35:30.111Z,31.25
2022-09-03T08:37:48.807Z,31.56
2022-09-03T08:38:51.630Z,31.64
2022-09-03T08:39:54.803Z,31.75
2022-09-03T08:41:12.269Z,31.75
2022-09-03T08:42:32.927Z,31.75
2022-09-03T08:44:53.950Z,31.69
2022-09-03T08:45:57.664Z,31.47
2022-09-03T08:47:16.261Z,31.59
2022-09-03T08:48:25.128Z,31.31
2022-09-03T08:49:44.872Z,31.45
2022-09-03T08:50:48.992Z,31.20
2022-09-03T08:51:51.965Z,31.41
2022-09-03T08:53:05.386Z,31.60
2022-09-03T08:54:09.788Z,31.63
2022-09-03T08:55:15.762Z,31.75
2022-09-03T08:56:29.145Z,31.78
2022-09-03T08:57:32.647Z,31.80
2022-09-03T08:58:35.341Z,31.83
2022-09-03T08:59:37.509Z,31.85
2022-09-03T09:02:25.887Z,31.80
2022-09-03T09:03:43.294Z,31.75
2022-09-03T09:05:00.736Z,31.80
2022-09-03T09:06:13.986Z,31.77
2022-09-03T09:07:29.155Z,31.79
2022-09-03T09:08:58.634Z,31.75
2022-09-03T09:11:42.050Z,31.76
2022-09-03T09:13:09.929Z,31.73
2022-09-03T09:14:21.646Z,31.66
2022-09-03T09:15:31.211Z,31.67
2022-09-03T09:16:39.847Z,31.67
2022-09-03T09:19:20.107Z,31.63
2022-09-03T09:20:43.053Z,31.58
2022-09-03T09:22:03.704Z,31.56
2022-09-03T09:23:09.324Z,31.50
2022-09-03T09:24:23.145Z,31.43
2022-09-03T09:25:25.479Z,31.44
2022-09-03T09:26:29.981Z,31.41
2022-09-03T09:27:32.825Z,31.37
2022-09-03T09:28:36.317Z,31.34
2022-09-03T09:29:38.918Z,31.28
2022-09-03T09:30:41.645Z,31.30
2022-09-03T09:31:43.896Z,31.29
2022-09-03T09:32:48.327Z,31.33
2022-09-03T09:33:50.649Z,31.34
2022-09-03T09:34:52.991Z,31.33
2022-09-03T09:35:55.341Z,31.38
2022-09-03T09:36:57.865Z,31.23
2022-09-03T09:38:00.140Z,31.22
2022-09-03T09:39:12.445Z,31.23
2022-09-03T09:41:38.537Z,31.16
2022-09-03T09:42:40.796Z,31.00
2022-09-03T09:43:43.687Z,30.81
2022-09-03T09:44:46.591Z,30.76
2022-09-03T09:45:51.729Z,30.86
2022-09-03T09:47:09.406Z,30.84
2022-09-03T09:49:43.273Z,30.37
2022-09-03T09:50:45.553Z,30.17
2022-09-03T09:51:47.704Z,30.44
2022-09-03T09:54:18.742Z,30.68
2022-09-03T09:55:21.048Z,30.67
2022-09-03T09:56:24.880Z,30.62
2022-09-03T09:57:27.145Z,30.63
2022-09-03T09:58:30.653Z,30.57
2022-09-03T09:59:33.561Z,30.08
2022-09-03T10:00:36.033Z,30.51
2022-09-03T10:01:40.069Z,30.60
2022-09-03T10:02:53.089Z,30.63
2022-09-03T10:03:59.955Z,30.29
2022-09-03T10:05:14.435Z,30.67
2022-09-03T10:06:17.729Z,30.66
2022-09-03T10:07:30.629Z,30.67
2022-09-03T10:08:32.840Z,30.76
2022-09-03T10:09:35.571Z,30.79
2022-09-03T10:10:41.706Z,30.83
2022-09-03T10:11:54.239Z,30.83
2022-09-03T10:13:06.316Z,30.62
2022-09-03T10:14:11.888Z,30.35
2022-09-03T10:15:28.775Z,30.51
2022-09-03T10:16:34.852Z,30.39
2022-09-03T10:17:45.185Z,30.52
2022-09-03T10:19:06.504Z,30.22
2022-09-03T10:20:12.637Z,30.19
2022-09-03T10:22:31.994Z,30.50
2022-09-03T10:25:09.688Z,30.46
2022-09-03T10:26:20.540Z,30.43
2022-09-03T10:27:22.731Z,30.51
2022-09-03T10:28:26.670Z,30.54
2022-09-03T10:29:30.268Z,30.55
2022-09-03T10:30:36.478Z,30.54
2022-09-03T10:31:59.162Z,30.56
2022-09-03T10:33:12.198Z,30.54
2022-09-03T10:36:09.196Z,30.46
2022-09-03T10:37:27.220Z,30.42
2022-09-03T10:38:34.096Z,30.25
2022-09-03T10:40:00.221Z,30.37
2022-09-03T10:41:06.306Z,30.41
2022-09-03T10:42:12.747Z,30.42
2022-09-03T10:43:47.605Z,30.38
2022-09-03T10:45:19.321Z,30.40
2022-09-03T10:46:28.974Z,30.42
2022-09-03T10:47:37.782Z,30.39
2022-09-03T10:48:56.619Z,30.40
2022-09-03T10:50:22.379Z,30.37
2022-09-03T10:51:34.512Z,30.37
2022-09-03T10:53:02.373Z,30.31
2022-09-03T10:54:20.916Z,30.27
2022-09-03T10:55:44.731Z,30.03
2022-09-03T10:57:00.349Z,30.22
2022-09-03T10:58:33.894Z,30.33
2022-09-03T11:00:07.249Z,30.24
2022-09-03T11:01:23.097Z,30.27
2022-09-03T11:02:41.517Z,30.25
2022-09-03T11:03:48.649Z,30.29
2022-09-03T11:05:03.335Z,30.32
2022-09-03T11:06:17.905Z,30.32
2022-09-03T11:07:23.084Z,30.27
2022-09-03T11:08:29.245Z,30.16
2022-09-03T11:09:50.091Z,30.13
2022-09-03T11:10:54.865Z,30.13
2022-09-03T11:11:59.330Z,29.73
2022-09-03T11:14:37.663Z,29.84
2022-09-03T11:15:46.389Z,29.32
2022-09-03T11:16:52.603Z,29.37
2022-09-03T11:18:01.383Z,29.74
2022-09-03T11:20:20.175Z,29.69
2022-09-03T11:21:26.149Z,29.70
2022-09-03T11:22:29.632Z,29.81
2022-09-03T11:23:34.815Z,29.89
2022-09-03T11:24:40.811Z,29.94
2022-09-03T11:25:48.506Z,30.01
2022-09-03T11:27:07.167Z,29.94
2022-09-03T11:28:28.419Z,29.99
2022-09-03T11:30:51.321Z,29.96
2022-09-03T11:31:57.413Z,29.96
2022-09-03T11:33:00.598Z,29.88
2022-09-03T11:34:32.124Z,30.01
2022-09-03T11:35:35.057Z,30.04
2022-09-03T11:36:38.068Z,30.00
2022-09-03T11:37:59.242Z,30.05
2022-09-03T11:39:13.234Z,30.05
2022-09-03T11:40:16.160Z,30.13
2022-09-03T11:41:26.166Z,30.08
2022-09-03T11:42:39.258Z,30.15
2022-09-03T11:43:42.640Z,29.94
2022-09-03T11:44:51.491Z,30.05
2022-09-03T11:46:11.041Z,30.18
2022-09-03T11:47:16.342Z,29.98
2022-09-03T11:48:30.352Z,29.95
2022-09-03T11:49:32.545Z,30.11
2022-09-03T11:50:37.688Z,30.14
2022-09-03T11:51:40.074Z,30.19
2022-09-03T11:52:45.222Z,30.06
2022-09-03T11:53:59.498Z,30.03
2022-09-03T11:55:02.004Z,30.12
2022-09-03T11:56:08.693Z,30.00
2022-09-03T11:57:13.071Z,30.03
2022-09-03T11:58:28.354Z,29.99
2022-09-03T11:59:30.778Z,30.05
2022-09-03T12:00:33.878Z,30.00
2022-09-03T12:01:37.691Z,30.09
2022-09-03T12:04:05.477Z,29.90
2022-09-03T12:07:20.258Z,29.86
2022-09-03T12:08:44.580Z,29.88
2022-09-03T12:10:06.663Z,29.84
2022-09-03T12:11:32.268Z,29.77
2022-09-03T12:12:42.512Z,29.72
2022-09-03T12:13:57.769Z,29.80
2022-09-03T12:15:11.879Z,29.76
2022-09-03T12:16:36.474Z,29.77
2022-09-03T12:19:03.154Z,29.75
2022-09-03T12:20:14.073Z,29.79
2022-09-03T12:21:16.551Z,29.72
2022-09-03T12:22:19.801Z,29.68
2022-09-03T12:23:28.676Z,29.57
2022-09-03T12:24:33.516Z,29.67
2022-09-03T12:25:36.068Z,29.66
2022-09-03T12:26:41.063Z,29.67
2022-09-03T12:27:44.332Z,29.74
2022-09-03T12:28:48.696Z,29.67
2022-09-03T12:31:11.722Z,29.45
2022-09-03T12:32:14.717Z,29.60
2022-09-03T12:33:18.358Z,29.54
2022-09-03T12:34:21.499Z,29.59
2022-09-03T12:38:09.270Z,29.48
2022-09-03T12:39:13.459Z,29.52
2022-09-03T12:40:07.722Z,29.51
2022-09-03T12:42:40.830Z,29.45
2022-09-03T12:43:50.303Z,29.10
2022-09-03T12:44:52.055Z,29.46
2022-09-03T12:46:10.721Z,29.59
2022-09-03T12:48:14.117Z,29.71
2022-09-03T12:49:32.893Z,29.75
2022-09-03T12:50:23.538Z,29.76
2022-09-03T12:52:36.058Z,29.31
2022-09-03T12:53:38.256Z,28.62
2022-09-03T12:55:56.428Z,29.78
2022-09-03T12:56:58.811Z,29.89
2022-09-03T12:58:23.733Z,29.68
2022-09-03T13:00:43.512Z,29.97
2022-09-03T13:01:51.027Z,29.97
2022-09-03T13:03:08.901Z,30.04
2022-09-03T13:04:15.093Z,29.81
2022-09-03T13:06:38.612Z,29.99
2022-09-03T13:08:57.383Z,29.96
2022-09-03T13:11:25.924Z,30.11
2022-09-03T13:12:33.572Z,29.95
2022-09-03T13:13:36.339Z,30.05
2022-09-03T13:14:46.285Z,30.07
2022-09-03T13:16:15.265Z,29.66
2022-09-03T13:19:12.963Z,29.94
2022-09-03T13:21:50.409Z,30.06
2022-09-03T13:23:34.222Z,30.13
2022-09-03T13:24:56.069Z,30.21
2022-09-03T13:26:13.807Z,30.20
2022-09-03T13:27:39.878Z,29.71
2022-09-03T13:29:06.316Z,29.63
2022-09-03T13:31:46.828Z,30.20
2022-09-03T13:33:12.889Z,30.34
2022-09-03T13:35:42.260Z,29.54
2022-09-03T13:37:05.210Z,29.76
2022-09-03T13:38:26.420Z,29.99
2022-09-03T13:39:33.141Z,30.02
2022-09-03T13:40:39.401Z,30.28
2022-09-03T13:41:45.195Z,30.27
2022-09-03T13:44:27.308Z,30.40
2022-09-03T13:45:39.078Z,30.39
2022-09-03T13:46:54.041Z,30.22
2022-09-03T13:47:59.562Z,30.29
2022-09-03T13:50:22.127Z,30.21
2022-09-03T13:51:37.731Z,30.31
2022-09-03T13:52:46.207Z,29.46
2022-09-03T13:54:05.076Z,29.60
2022-09-03T13:56:49.936Z,30.00
2022-09-03T13:58:02.110Z,30.25
2022-09-03T13:59:08.139Z,30.33
2022-09-03T14:00:13.796Z,29.86
2022-09-03T14:01:25.890Z,29.62
2022-09-03T14:02:35.139Z,29.74
2022-09-03T14:03:49.410Z,30.09
2022-09-03T14:05:18.280Z,30.03
2022-09-03T14:06:43.548Z,30.17
2022-09-03T14:08:05.941Z,29.76
2022-09-03T14:09:17.160Z,30.25
2022-09-03T14:10:46.404Z,30.33
2022-09-03T14:12:10.141Z,30.38
2022-09-03T14:13:39.898Z,30.41
2022-09-03T14:15:03.319Z,30.35
2022-09-03T14:16:15.548Z,29.85
2022-09-03T14:17:33.307Z,29.67
2022-09-03T14:18:46.056Z,30.03
2022-09-03T14:19:54.727Z,30.41
2022-09-03T14:21:01.466Z,30.48
2022-09-03T14:22:30.522Z,30.45
2022-09-03T14:23:36.601Z,30.57
2022-09-03T14:25:01.455Z,30.58
2022-09-03T14:26:05.376Z,30.60
2022-09-03T14:27:07.543Z,30.58
2022-09-03T14:29:44.063Z,30.61
2022-09-03T14:32:46.232Z,30.61
2022-09-03T14:34:04.256Z,30.59
2022-09-03T14:35:16.301Z,30.53
2022-09-03T14:36:38.221Z,30.53
2022-09-03T14:38:10.280Z,30.52
2022-09-03T14:39:42.397Z,30.51
2022-09-03T14:42:08.972Z,30.38
2022-09-03T14:43:17.857Z,30.28
2022-09-03T14:44:44.440Z,30.26
2022-09-03T14:45:50.490Z,30.30
2022-09-03T14:47:15.041Z,30.13
2022-09-03T14:48:31.935Z,30.08
2022-09-03T14:49:37.967Z,29.94
2022-09-03T14:51:06.404Z,29.91
2022-09-03T14:52:14.969Z,29.75
2022-09-03T14:53:20.930Z,29.68
2022-09-03T14:54:48.468Z,29.81
2022-09-03T14:55:57.266Z,29.88
2022-09-03T14:57:20.176Z,29.79
2022-09-03T14:58:32.264Z,29.68
2022-09-03T14:59:41.371Z,29.55
2022-09-03T15:00:51.670Z,29.64
2022-09-03T15:04:11.999Z,29.67
2022-09-03T15:05:38.440Z,29.61
2022-09-03T15:06:51.592Z,29.61
2022-09-03T15:07:58.743Z,29.66
2022-09-03T15:10:33.615Z,29.69
2022-09-03T15:13:14.612Z,29.73
2022-09-03T15:15:52.620Z,29.73
2022-09-03T15:17:02.335Z,29.74
2022-09-03T15:18:15.160Z,29.74
2022-09-03T15:19:59.028Z,29.78
2022-09-03T15:22:40.858Z,29.80
2022-09-03T15:24:21.623Z,29.89
2022-09-03T15:25:27.593Z,29.92
2022-09-03T15:26:49.524Z,29.93
2022-09-03T15:28:13.906Z,29.98
2022-09-03T15:29:44.389Z,29.96
2022-09-03T15:31:13.348Z,29.97
2022-09-03T15:32:27.700Z,29.99
2022-09-03T15:33:59.895Z,29.97
2022-09-03T15:36:26.067Z,30.03
2022-09-03T15:38:01.343Z,30.07
2022-09-03T15:40:43.062Z,30.19
2022-09-03T15:42:04.097Z,30.21
2022-09-03T15:45:58.929Z,30.32
2022-09-03T15:47:18.021Z,30.39
2022-09-03T15:50:02.795Z,30.46
2022-09-03T15:51:38.802Z,30.45
2022-09-03T15:54:41.386Z,30.48
2022-09-03T15:57:08.752Z,30.54
2022-09-03T15:58:37.651Z,30.61
2022-09-03T16:00:00.551Z,30.62
2022-09-03T16:02:20.759Z,30.60
2022-09-03T16:04:58.273Z,30.61
2022-09-03T16:06:23.218Z,30.60
2022-09-03T16:07:38.122Z,30.61
2022-09-03T16:08:55.465Z,30.58
2022-09-03T16:11:16.394Z,30.59
2022-09-03T16:13:47.041Z,30.68
2022-09-03T16:16:24.652Z,30.57
2022-09-03T16:19:26.146Z,30.76
2022-09-03T16:22:00.321Z,30.73
2022-09-03T16:23:21.692Z,29.95
2022-09-03T16:25:59.528Z,30.66
2022-09-03T16:27:08.367Z,30.66
2022-09-03T16:29:34.349Z,30.79
2022-09-03T16:30:53.436Z,30.82